^^
Station Historical Data
Daily Summary for September 13, 2017 Units:  Both    English   Metric
« Previous Day
Next Day »
Daily Weekly Monthly Yearly Custom
  High: Low: Average:
Temperature: TemperatureF °F /  -17.8 °C 54.3 °F /  12.4 °C 71.6 °F /  22 °C
Dew Point: DewpointF °F /  -17.8 °C 13.5 °F /  -10.3 °C 21.8 °F /  -5.7 °C
Humidity: Humidity% 8% 17%
Wind Speed: WindSpeedMPHmph /  0km/h - 0.9mph /  1.4km/h
Wind Gust: WindSpeedGustMPHmph /  0km/h - -
Wind- - SW
Pressure: PressureIn in /  0 hPa 29.77 in /  1008 hPa -
Precipitation: 0.00 in /  0 mm    
Historical Graphs
 
 
Tabular Data for September 13, 2017
Time Temperature Dew Point Pressure Wind Wind Speed Wind Gust Humidity Rainfall Rate (Hourly) solar Conditions
TemperatureF °F /  -17.8 °C DewpointF °F /  -17.8 °C PressureInin /  0hPa Calm     Humidity% HourlyPrecipInin /  0mm SolarRadiationWatts/m^2 W/m2 Conditions
00:02 61.5 °F /  16.4 °C 13.5 °F /  -10.3 °C 30.18in /  1021.9hPa Calm   1.0mph /  1.6km/h 15% 0.00in /  0mm 0.0 W/m2
00:08 61.5 °F /  16.4 °C 13.5 °F /  -10.3 °C 30.18in /  1021.9hPa Calm   1.0mph /  1.6km/h 15% 0.00in /  0mm 0.0 W/m2
00:14 61.5 °F /  16.4 °C 13.5 °F /  -10.3 °C 30.18in /  1021.9hPa Calm   1.0mph /  1.6km/h 15% 0.00in /  0mm 0.0 W/m2
00:20 61.5 °F /  16.4 °C 13.5 °F /  -10.3 °C 30.18in /  1021.9hPa Calm     15% 0.00in /  0mm 0.0 W/m2
00:26 61.5 °F /  16.4 °C 13.5 °F /  -10.3 °C 30.18in /  1021.9hPa Calm     15% 0.00in /  0mm 0.0 W/m2
00:32 61.5 °F /  16.4 °C 13.5 °F /  -10.3 °C 30.18in /  1021.9hPa Calm     15% 0.00in /  0mm 0.0 W/m2
00:38 61.3 °F /  16.3 °C 14.7 °F /  -9.6 °C 30.18in /  1021.9hPa Calm   1.0mph /  1.6km/h 16% 0.00in /  0mm 0.0 W/m2
00:44 61.0 °F /  16.1 °C 17.2 °F /  -8.2 °C 30.17in /  1021.6hPa Calm     18% 0.00in /  0mm 0.0 W/m2
00:51 60.6 °F /  15.9 °C 15.6 °F /  -9.1 °C 30.17in /  1021.6hPa Calm     17% 0.00in /  0mm 0.0 W/m2
00:57 60.4 °F /  15.8 °C 15.4 °F /  -9.2 °C 30.17in /  1021.6hPa Calm     17% 0.00in /  0mm 0.0 W/m2
01:03 60.4 °F /  15.8 °C 15.4 °F /  -9.2 °C 30.17in /  1021.6hPa Calm   1.0mph /  1.6km/h 17% 0.00in /  0mm 0.0 W/m2
01:09 60.3 °F /  15.7 °C 15.3 °F /  -9.3 °C 30.17in /  1021.6hPa Calm   3.0mph /  4.8km/h 17% 0.00in /  0mm 0.0 W/m2
01:15 60.1 °F /  15.6 °C 16.3 °F /  -8.7 °C 30.17in /  1021.6hPa Calm   2.0mph /  3.2km/h 18% 0.00in /  0mm 0.0 W/m2
01:21 60.1 °F /  15.6 °C 16.3 °F /  -8.7 °C 30.17in /  1021.6hPa Calm   3.0mph /  4.8km/h 18% 0.00in /  0mm 0.0 W/m2
01:27 59.9 °F /  15.5 °C 16.3 °F /  -8.7 °C 30.17in /  1021.6hPa Calm   1.0mph /  1.6km/h 18% 0.00in /  0mm 0.0 W/m2
01:34 59.9 °F /  15.5 °C 16.3 °F /  -8.7 °C 30.17in /  1021.6hPa Calm   1.0mph /  1.6km/h 18% 0.00in /  0mm 0.0 W/m2
01:40 59.7 °F /  15.4 °C 17.4 °F /  -8.1 °C 30.17in /  1021.6hPa Calm   1.0mph /  1.6km/h 19% 0.00in /  0mm 0.0 W/m2
01:46 59.7 °F /  15.4 °C 18.5 °F /  -7.5 °C 30.17in /  1021.6hPa Calm   1.0mph /  1.6km/h 20% 0.00in /  0mm 0.0 W/m2
01:52 59.7 °F /  15.4 °C 18.5 °F /  -7.5 °C 30.17in /  1021.6hPa Calm   1.0mph /  1.6km/h 20% 0.00in /  0mm 0.0 W/m2
01:58 59.7 °F /  15.4 °C 18.5 °F /  -7.5 °C 30.17in /  1021.6hPa Calm     20% 0.00in /  0mm 0.0 W/m2
02:04 59.7 °F /  15.4 °C 18.5 °F /  -7.5 °C 30.17in /  1021.6hPa Calm   2.0mph /  3.2km/h 20% 0.00in /  0mm 0.0 W/m2
02:10 59.7 °F /  15.4 °C 19.8 °F /  -6.8 °C 30.17in /  1021.6hPa Calm   3.0mph /  4.8km/h 21% 0.00in /  0mm 0.0 W/m2
02:17 59.7 °F /  15.4 °C 19.8 °F /  -6.8 °C 30.17in /  1021.6hPa Calm     21% 0.00in /  0mm 0.0 W/m2
02:23 59.7 °F /  15.4 °C 19.8 °F /  -6.8 °C 30.16in /  1021.2hPa East 2.0mph /  3.2km/h 2.0mph /  3.2km/h 21% 0.00in /  0mm 0.0 W/m2
02:29 59.5 °F /  15.3 °C 20.7 °F /  -6.3 °C 30.16in /  1021.2hPa ESE 3.0mph /  4.8km/h 3.0mph /  4.8km/h 22% 0.00in /  0mm 0.0 W/m2
02:35 59.4 °F /  15.2 °C 20.5 °F /  -6.4 °C 30.16in /  1021.2hPa Calm   1.0mph /  1.6km/h 22% 0.00in /  0mm 0.0 W/m2
02:41 59.2 °F /  15.1 °C 20.3 °F /  -6.5 °C 30.16in /  1021.2hPa Calm     22% 0.00in /  0mm 0.0 W/m2
02:47 59.0 °F /  15 °C 20.1 °F /  -6.6 °C 30.16in /  1021.2hPa Calm   2.0mph /  3.2km/h 22% 0.00in /  0mm 0.0 W/m2
02:53 58.8 °F /  14.9 °C 20.1 °F /  -6.6 °C 30.16in /  1021.2hPa SE 0.9mph /  1.4km/h 1.0mph /  1.6km/h 22% 0.00in /  0mm 0.0 W/m2
03:00 58.6 °F /  14.8 °C 19.9 °F /  -6.7 °C 30.16in /  1021.2hPa Calm   1.0mph /  1.6km/h 22% 0.00in /  0mm 0.0 W/m2
03:06 58.6 °F /  14.8 °C 19.9 °F /  -6.7 °C 30.16in /  1021.2hPa Calm   1.0mph /  1.6km/h 22% 0.00in /  0mm 0.0 W/m2
03:12 58.5 °F /  14.7 °C 19.8 °F /  -6.8 °C 30.16in /  1021.2hPa Calm   2.0mph /  3.2km/h 22% 0.00in /  0mm 0.0 W/m2
03:18 58.5 °F /  14.7 °C 20.8 °F /  -6.2 °C 30.16in /  1021.2hPa Calm   1.0mph /  1.6km/h 23% 0.00in /  0mm 0.0 W/m2
03:24 58.5 °F /  14.7 °C 19.8 °F /  -6.8 °C 30.16in /  1021.2hPa ENE 0.9mph /  1.4km/h 4.0mph /  6.4km/h 22% 0.00in /  0mm 0.0 W/m2
03:30 58.5 °F /  14.7 °C 19.8 °F /  -6.8 °C 30.17in /  1021.6hPa Calm   3.0mph /  4.8km/h 22% 0.00in /  0mm 0.0 W/m2
03:36 58.6 °F /  14.8 °C 18.9 °F /  -7.3 °C 30.17in /  1021.6hPa NE 2.0mph /  3.2km/h 2.0mph /  3.2km/h 21% 0.00in /  0mm 0.0 W/m2
03:42 58.5 °F /  14.7 °C 19.8 °F /  -6.8 °C 30.17in /  1021.6hPa Calm   3.0mph /  4.8km/h 22% 0.00in /  0mm 0.0 W/m2
03:49 58.6 °F /  14.8 °C 19.9 °F /  -6.7 °C 30.16in /  1021.2hPa Calm   5.0mph /  8km/h 22% 0.00in /  0mm 0.0 W/m2
03:55 59.0 °F /  15 °C 20.1 °F /  -6.6 °C 30.16in /  1021.2hPa Calm   5.0mph /  8km/h 22% 0.00in /  0mm 0.0 W/m2
04:01 59.4 °F /  15.2 °C 20.5 °F /  -6.4 °C 30.16in /  1021.2hPa Calm   5.0mph /  8km/h 22% 0.00in /  0mm 0.0 W/m2
04:07 59.5 °F /  15.3 °C 21.7 °F /  -5.7 °C 30.16in /  1021.2hPa East 0.9mph /  1.4km/h 6.0mph /  9.7km/h 23% 0.00in /  0mm 0.0 W/m2
04:13 59.7 °F /  15.4 °C 20.8 °F /  -6.2 °C 30.16in /  1021.2hPa East 2.9mph /  4.7km/h 5.0mph /  8km/h 22% 0.00in /  0mm 0.0 W/m2
04:19 59.9 °F /  15.5 °C 21.0 °F /  -6.1 °C 30.16in /  1021.2hPa Calm     22% 0.00in /  0mm 0.0 W/m2
04:25 59.7 °F /  15.4 °C 20.8 °F /  -6.2 °C 30.16in /  1021.2hPa Calm   1.0mph /  1.6km/h 22% 0.00in /  0mm 0.0 W/m2
04:32 59.7 °F /  15.4 °C 21.9 °F /  -5.6 °C 30.16in /  1021.2hPa Calm     23% 0.00in /  0mm 0.0 W/m2
04:38 59.5 °F /  15.3 °C 21.7 °F /  -5.7 °C 30.16in /  1021.2hPa Calm     23% 0.00in /  0mm 0.0 W/m2
04:44 59.4 °F /  15.2 °C 21.6 °F /  -5.8 °C 30.16in /  1021.2hPa East 2.0mph /  3.2km/h 2.0mph /  3.2km/h 23% 0.00in /  0mm 0.0 W/m2
04:50 59.2 °F /  15.1 °C 21.4 °F /  -5.9 °C 30.16in /  1021.2hPa ESE 0.9mph /  1.4km/h 2.0mph /  3.2km/h 23% 0.00in /  0mm 0.0 W/m2
04:56 59.4 °F /  15.2 °C 21.6 °F /  -5.8 °C 30.16in /  1021.2hPa Calm     23% 0.00in /  0mm 0.0 W/m2
05:02 59.2 °F /  15.1 °C 21.4 °F /  -5.9 °C 30.17in /  1021.6hPa Calm     23% 0.00in /  0mm 0.0 W/m2
05:08 58.8 °F /  14.9 °C 21.0 °F /  -6.1 °C 30.16in /  1021.2hPa Calm   1.0mph /  1.6km/h 23% 0.00in /  0mm 0.0 W/m2
05:14 58.5 °F /  14.7 °C 20.8 °F /  -6.2 °C 30.17in /  1021.6hPa Calm     23% 0.00in /  0mm 0.0 W/m2
05:21 58.3 °F /  14.6 °C 21.6 °F /  -5.8 °C 30.17in /  1021.6hPa Calm     24% 0.00in /  0mm 0.0 W/m2
05:27 58.1 °F /  14.5 °C 20.5 °F /  -6.4 °C 30.17in /  1021.6hPa Calm   1.0mph /  1.6km/h 23% 0.00in /  0mm 0.0 W/m2
05:33 58.1 °F /  14.5 °C 20.5 °F /  -6.4 °C 30.17in /  1021.6hPa Calm     23% 0.00in /  0mm 0.0 W/m2
05:39 57.9 °F /  14.4 °C 20.3 °F /  -6.5 °C 30.17in /  1021.6hPa Calm     23% 0.00in /  0mm 0.0 W/m2
05:45 57.9 °F /  14.4 °C 20.3 °F /  -6.5 °C 30.18in /  1021.9hPa Calm     23% 0.00in /  0mm 0.0 W/m2
05:51 57.6 °F /  14.2 °C 21.0 °F /  -6.1 °C 30.18in /  1021.9hPa Calm     24% 0.00in /  0mm 0.0 W/m2
05:57 57.2 °F /  14 °C 20.7 °F /  -6.3 °C 30.18in /  1021.9hPa Calm     24% 0.00in /  0mm 0.0 W/m2
06:04 56.7 °F /  13.7 °C 21.2 °F /  -6 °C 30.18in /  1021.9hPa Calm     25% 0.00in /  0mm 0.0 W/m2
06:10 56.1 °F /  13.4 °C 20.8 °F /  -6.2 °C 30.18in /  1021.9hPa Calm     25% 0.00in /  0mm 0.0 W/m2
06:16 55.6 °F /  13.1 °C 20.3 °F /  -6.5 °C 30.18in /  1021.9hPa Calm     25% 0.00in /  0mm 0.0 W/m2
06:22 55.2 °F /  12.9 °C 19.9 °F /  -6.7 °C 30.19in /  1022.2hPa Calm     25% 0.00in /  0mm 0.0 W/m2
06:28 54.9 °F /  12.7 °C 20.7 °F /  -6.3 °C 30.18in /  1021.9hPa Calm     26% 0.00in /  0mm 0.0 W/m2
06:34 54.7 °F /  12.6 °C 20.5 °F /  -6.4 °C 30.19in /  1022.2hPa Calm     26% 0.00in /  0mm 0.0 W/m2
06:40 54.3 °F /  12.4 °C 21.0 °F /  -6.1 °C 30.19in /  1022.2hPa Calm   1.0mph /  1.6km/h 27% 0.00in /  0mm 0.0 W/m2
06:47 54.3 °F /  12.4 °C 21.0 °F /  -6.1 °C 30.19in /  1022.2hPa Calm   1.0mph /  1.6km/h 27% 0.00in /  0mm 0.0 W/m2
06:53 54.5 °F /  12.5 °C 21.2 °F /  -6 °C 30.19in /  1022.2hPa Calm     27% 0.00in /  0mm 0.0 W/m2
06:59 54.7 °F /  12.6 °C 21.4 °F /  -5.9 °C 30.19in /  1022.2hPa Calm   2.0mph /  3.2km/h 27% 0.00in /  0mm 7.0 W/m2
07:05 55.0 °F /  12.8 °C 21.7 °F /  -5.7 °C 30.19in /  1022.2hPa Calm   3.0mph /  4.8km/h 27% 0.00in /  0mm 12.0 W/m2
07:11 55.8 °F /  13.2 °C 23.2 °F /  -4.9 °C 30.19in /  1022.2hPa Calm   1.0mph /  1.6km/h 28% 0.00in /  0mm 16.0 W/m2
07:17 56.8 °F /  13.8 °C 24.1 °F /  -4.4 °C 30.20in /  1022.6hPa Calm     28% 0.00in /  0mm 19.0 W/m2
07:23 57.7 °F /  14.3 °C 24.8 °F /  -4 °C 30.20in /  1022.6hPa Calm   3.0mph /  4.8km/h 28% 0.00in /  0mm 23.0 W/m2
07:30 58.3 °F /  14.6 °C 25.3 °F /  -3.7 °C 30.20in /  1022.6hPa Calm     28% 0.00in /  0mm 28.0 W/m2
07:36 58.8 °F /  14.9 °C 25.7 °F /  -3.5 °C 30.20in /  1022.6hPa Calm     28% 0.00in /  0mm 32.0 W/m2
07:42 59.4 °F /  15.2 °C 26.2 °F /  -3.2 °C 30.20in /  1022.6hPa Calm     28% 0.00in /  0mm 33.0 W/m2
07:48 59.7 °F /  15.4 °C 27.3 °F /  -2.6 °C 30.21in /  1022.9hPa Calm     29% 0.00in /  0mm 37.0 W/m2
07:54 60.1 °F /  15.6 °C 27.7 °F /  -2.4 °C 30.21in /  1022.9hPa Calm     29% 0.00in /  0mm 40.0 W/m2
08:00 60.6 °F /  15.9 °C 28.9 °F /  -1.7 °C 30.21in /  1022.9hPa Calm     30% 0.00in /  0mm 42.0 W/m2
08:06 61.2 °F /  16.2 °C 28.6 °F /  -1.9 °C 29.87in /  1011.4hPa Calm   3.0mph /  4.8km/h 29% 0.00in /  0mm 46.0 W/m2
08:12 62.1 °F /  16.7 °C 29.5 °F /  -1.4 °C 29.87in /  1011.4hPa Calm     29% 0.00in /  0mm 47.0 W/m2
08:18 62.6 °F /  17 °C 29.8 °F /  -1.2 °C 29.88in /  1011.7hPa Calm     29% 0.00in /  0mm 53.0 W/m2
08:25 63.3 °F /  17.4 °C 29.7 °F /  -1.3 °C 29.88in /  1011.7hPa Calm   4.0mph /  6.4km/h 28% 0.00in /  0mm 53.0 W/m2
08:31 64.2 °F /  17.9 °C 29.5 °F /  -1.4 °C 29.87in /  1011.4hPa ENE 0.9mph /  1.4km/h 2.0mph /  3.2km/h 27% 0.00in /  0mm 56.0 W/m2
08:37 65.5 °F /  18.6 °C 30.6 °F /  -0.8 °C 29.87in /  1011.4hPa ENE 0.9mph /  1.4km/h 2.0mph /  3.2km/h 27% 0.00in /  0mm 60.0 W/m2
08:43 66.4 °F /  19.1 °C 29.5 °F /  -1.4 °C 29.88in /  1011.7hPa Calm   1.0mph /  1.6km/h 25% 0.00in /  0mm 60.0 W/m2
08:49 67.5 °F /  19.7 °C 30.4 °F /  -0.9 °C 29.87in /  1011.4hPa Calm     25% 0.00in /  0mm 63.0 W/m2
08:55 68.4 °F /  20.2 °C 30.2 °F /  -1 °C 29.87in /  1011.4hPa ESE 2.9mph /  4.7km/h 3.0mph /  4.8km/h 24% 0.00in /  0mm 67.0 W/m2
09:02 69.1 °F /  20.6 °C 29.7 °F /  -1.3 °C 29.87in /  1011.4hPa Calm     23% 0.00in /  0mm 69.0 W/m2
09:08 69.6 °F /  20.9 °C 30.2 °F /  -1 °C 29.87in /  1011.4hPa Calm   1.0mph /  1.6km/h 23% 0.00in /  0mm 70.0 W/m2
09:14 70.2 °F /  21.2 °C 29.5 °F /  -1.4 °C 29.87in /  1011.4hPa Calm     22% 0.00in /  0mm 72.0 W/m2
09:20 71.1 °F /  21.7 °C 29.1 °F /  -1.6 °C 29.87in /  1011.4hPa Calm   1.0mph /  1.6km/h 21% 0.00in /  0mm 74.0 W/m2
09:26 71.8 °F /  22.1 °C 29.7 °F /  -1.3 °C 29.87in /  1011.4hPa Calm     21% 0.00in /  0mm 77.0 W/m2
09:32 72.3 °F /  22.4 °C 28.9 °F /  -1.7 °C 29.87in /  1011.4hPa SW 2.0mph /  3.2km/h 3.0mph /  4.8km/h 20% 0.00in /  0mm 83.0 W/m2
09:38 72.9 °F /  22.7 °C 29.5 °F /  -1.4 °C 29.87in /  1011.4hPa West 0.9mph /  1.4km/h 2.0mph /  3.2km/h 20% 0.00in /  0mm 520.0 W/m2
09:44 73.6 °F /  23.1 °C 28.8 °F /  -1.8 °C 29.87in /  1011.4hPa WSW 0.9mph /  1.4km/h 2.0mph /  3.2km/h 19% 0.00in /  0mm 540.0 W/m2
09:51 74.1 °F /  23.4 °C 29.3 °F /  -1.5 °C 29.87in /  1011.4hPa WSW 4.9mph /  7.9km/h 5.0mph /  8km/h 19% 0.00in /  0mm 561.0 W/m2
09:57 74.7 °F /  23.7 °C 29.7 °F /  -1.3 °C 29.87in /  1011.4hPa Calm   1.0mph /  1.6km/h 19% 0.00in /  0mm 577.0 W/m2
10:03 75.4 °F /  24.1 °C 30.2 °F /  -1 °C 29.87in /  1011.4hPa SW 0.9mph /  1.4km/h 3.0mph /  4.8km/h 19% 0.00in /  0mm 596.0 W/m2
10:09 76.5 °F /  24.7 °C 29.8 °F /  -1.2 °C 29.86in /  1011.1hPa NNE 0.9mph /  1.4km/h 6.0mph /  9.7km/h 18% 0.00in /  0mm 613.0 W/m2
10:15 77.5 °F /  25.3 °C 29.3 °F /  -1.5 °C 29.86in /  1011.1hPa SW 2.0mph /  3.2km/h 2.0mph /  3.2km/h 17% 0.00in /  0mm 629.0 W/m2
10:21 78.3 °F /  25.7 °C 29.8 °F /  -1.2 °C 29.86in /  1011.1hPa Calm   1.0mph /  1.6km/h 17% 0.00in /  0mm 647.0 W/m2
10:27 79.2 °F /  26.2 °C 29.1 °F /  -1.6 °C 29.86in /  1011.1hPa North 2.9mph /  4.7km/h 3.0mph /  4.8km/h 16% 0.00in /  0mm 661.0 W/m2
10:34 80.1 °F /  26.7 °C 28.2 °F /  -2.1 °C 29.86in /  1011.1hPa NW 0.9mph /  1.4km/h 7.0mph /  11.3km/h 15% 0.00in /  0mm 677.0 W/m2
10:40 81.0 °F /  27.2 °C 28.9 °F /  -1.7 °C 29.86in /  1011.1hPa Calm   2.0mph /  3.2km/h 15% 0.00in /  0mm 693.0 W/m2
10:46 81.7 °F /  27.6 °C 29.5 °F /  -1.4 °C 29.86in /  1011.1hPa Calm   3.0mph /  4.8km/h 15% 0.00in /  0mm 700.0 W/m2
10:52 81.9 °F /  27.7 °C 28.0 °F /  -2.2 °C 29.85in /  1010.7hPa NW 2.0mph /  3.2km/h 8.0mph /  12.9km/h 14% 0.00in /  0mm 719.0 W/m2
10:58 82.6 °F /  28.1 °C 28.6 °F /  -1.9 °C 29.85in /  1010.7hPa West 2.0mph /  3.2km/h 3.0mph /  4.8km/h 14% 0.00in /  0mm 733.0 W/m2
11:04 83.1 °F /  28.4 °C 27.1 °F /  -2.7 °C 29.85in /  1010.7hPa NE 2.0mph /  3.2km/h 6.0mph /  9.7km/h 13% 0.00in /  0mm 744.0 W/m2
11:10 83.7 °F /  28.7 °C 27.7 °F /  -2.4 °C 29.85in /  1010.7hPa NNW 0.9mph /  1.4km/h 7.0mph /  11.3km/h 13% 0.00in /  0mm 754.0 W/m2
11:17 84.0 °F /  28.9 °C 27.9 °F /  -2.3 °C 29.85in /  1010.7hPa WNW 4.0mph /  6.4km/h 7.0mph /  11.3km/h 13% 0.00in /  0mm 770.0 W/m2
11:23 84.4 °F /  29.1 °C 28.2 °F /  -2.1 °C 29.85in /  1010.7hPa WNW 4.9mph /  7.9km/h 7.0mph /  11.3km/h 13% 0.00in /  0mm 782.0 W/m2
11:29 84.2 °F /  29 °C 26.1 °F /  -3.3 °C 29.85in /  1010.7hPa North 2.0mph /  3.2km/h 9.0mph /  14.5km/h 12% 0.00in /  0mm 786.0 W/m2
11:35 84.4 °F /  29.1 °C 26.2 °F /  -3.2 °C 29.84in /  1010.4hPa NW 2.0mph /  3.2km/h 10.0mph /  16.1km/h 12% 0.00in /  0mm 800.0 W/m2
11:41 85.1 °F /  29.5 °C 26.8 °F /  -2.9 °C 29.84in /  1010.4hPa NNW 4.0mph /  6.4km/h 7.0mph /  11.3km/h 12% 0.00in /  0mm 793.0 W/m2
11:47 85.3 °F /  29.6 °C 27.0 °F /  -2.8 °C 29.84in /  1010.4hPa NW 0.9mph /  1.4km/h 8.0mph /  12.9km/h 12% 0.00in /  0mm 809.0 W/m2
11:53 85.5 °F /  29.7 °C 25.0 °F /  -3.9 °C 29.84in /  1010.4hPa North 6.0mph /  9.7km/h 9.0mph /  14.5km/h 11% 0.00in /  0mm 824.0 W/m2
11:59 85.8 °F /  29.9 °C 25.2 °F /  -3.8 °C 29.84in /  1010.4hPa Calm   6.0mph /  9.7km/h 11% 0.00in /  0mm 793.0 W/m2
12:05 85.8 °F /  29.9 °C 23.0 °F /  -5 °C 29.83in /  1010hPa NNW 2.0mph /  3.2km/h 3.0mph /  4.8km/h 10% 0.00in /  0mm 831.0 W/m2
12:12 85.8 °F /  29.9 °C 23.0 °F /  -5 °C 29.83in /  1010hPa North 2.0mph /  3.2km/h 8.0mph /  12.9km/h 10% 0.00in /  0mm 837.0 W/m2
12:18 86.2 °F /  30.1 °C 20.7 °F /  -6.3 °C 29.83in /  1010hPa NNW 2.9mph /  4.7km/h 9.0mph /  14.5km/h 9% 0.00in /  0mm 831.0 W/m2
12:24 86.5 °F /  30.3 °C 23.5 °F /  -4.7 °C 29.83in /  1010hPa WNW 4.9mph /  7.9km/h 5.0mph /  8km/h 10% 0.00in /  0mm 842.0 W/m2
12:30 87.4 °F /  30.8 °C 21.7 °F /  -5.7 °C 29.83in /  1010hPa NE 2.0mph /  3.2km/h 10.0mph /  16.1km/h 9% 0.00in /  0mm 828.0 W/m2
12:36 87.3 °F /  30.7 °C 24.1 °F /  -4.4 °C 29.82in /  1009.7hPa NNE 8.1mph /  13km/h 10.0mph /  16.1km/h 10% 0.00in /  0mm 840.0 W/m2
12:42 86.7 °F /  30.4 °C 21.2 °F /  -6 °C 29.82in /  1009.7hPa North 4.9mph /  7.9km/h 11.0mph /  17.7km/h 9% 0.00in /  0mm 851.0 W/m2
12:48 86.7 °F /  30.4 °C 18.3 °F /  -7.6 °C 29.82in /  1009.7hPa ESE 2.0mph /  3.2km/h 4.0mph /  6.4km/h 8% 0.00in /  0mm 800.0 W/m2
12:54 87.1 °F /  30.6 °C 21.4 °F /  -5.9 °C 29.81in /  1009.4hPa NNE 0.9mph /  1.4km/h 7.0mph /  11.3km/h 9% 0.00in /  0mm 796.0 W/m2
13:00 87.1 °F /  30.6 °C 18.7 °F /  -7.4 °C 29.81in /  1009.4hPa NNW 2.9mph /  4.7km/h 8.0mph /  12.9km/h 8% 0.00in /  0mm 802.0 W/m2
13:07 87.4 °F /  30.8 °C 21.7 °F /  -5.7 °C 29.81in /  1009.4hPa NW 2.9mph /  4.7km/h 10.0mph /  16.1km/h 9% 0.00in /  0mm 802.0 W/m2
13:13 87.6 °F /  30.9 °C 19.0 °F /  -7.2 °C 29.81in /  1009.4hPa NNW 8.9mph /  14.3km/h 9.0mph /  14.5km/h 8% 0.00in /  0mm 788.0 W/m2
13:19 87.6 °F /  30.9 °C 19.0 °F /  -7.2 °C 29.81in /  1009.4hPa North 0.9mph /  1.4km/h 3.0mph /  4.8km/h 8% 0.00in /  0mm 800.0 W/m2
13:25 88.2 °F /  31.2 °C 19.4 °F /  -7 °C 29.80in /  1009hPa Calm   12.0mph /  19.3km/h 8% 0.00in /  0mm 789.0 W/m2
13:31 88.2 °F /  31.2 °C 19.4 °F /  -7 °C 29.80in /  1009hPa NNW 2.0mph /  3.2km/h 5.0mph /  8km/h 8% 0.00in /  0mm 772.0 W/m2
13:37 88.3 °F /  31.3 °C 19.6 °F /  -6.9 °C 29.80in /  1009hPa SW 4.9mph /  7.9km/h 5.0mph /  8km/h 8% 0.00in /  0mm 788.0 W/m2
13:43 88.2 °F /  31.2 °C 22.3 °F /  -5.4 °C 29.80in /  1009hPa WSW 0.9mph /  1.4km/h 9.0mph /  14.5km/h 9% 0.00in /  0mm 761.0 W/m2
13:50 88.3 °F /  31.3 °C 19.6 °F /  -6.9 °C 29.80in /  1009hPa NW 8.9mph /  14.3km/h 15.0mph /  24.1km/h 8% 0.00in /  0mm 758.0 W/m2
13:56 88.3 °F /  31.3 °C 19.6 °F /  -6.9 °C 29.80in /  1009hPa NNW 11.0mph /  17.7km/h 11.0mph /  17.7km/h 8% 0.00in /  0mm 766.0 W/m2
14:02 88.3 °F /  31.3 °C 19.6 °F /  -6.9 °C 29.80in /  1009hPa WNW 2.0mph /  3.2km/h 4.0mph /  6.4km/h 8% 0.00in /  0mm 745.0 W/m2
14:08 88.0 °F /  31.1 °C 19.4 °F /  -7 °C 29.80in /  1009hPa West 0.9mph /  1.4km/h 8.0mph /  12.9km/h 8% 0.00in /  0mm 738.0 W/m2
14:14 88.0 °F /  31.1 °C 22.1 °F /  -5.5 °C 29.79in /  1008.7hPa NW 2.0mph /  3.2km/h 8.0mph /  12.9km/h 9% 0.00in /  0mm 726.0 W/m2
14:20 88.5 °F /  31.4 °C 19.8 °F /  -6.8 °C 29.79in /  1008.7hPa Calm   5.0mph /  8km/h 8% 0.00in /  0mm 721.0 W/m2
14:26 89.1 °F /  31.7 °C 20.1 °F /  -6.6 °C 29.78in /  1008.4hPa West 2.9mph /  4.7km/h 9.0mph /  14.5km/h 8% 0.00in /  0mm 691.0 W/m2
14:32 89.1 °F /  31.7 °C 20.1 °F /  -6.6 °C 29.78in /  1008.4hPa Calm   4.0mph /  6.4km/h 8% 0.00in /  0mm 686.0 W/m2
14:39 89.1 °F /  31.7 °C 20.1 °F /  -6.6 °C 29.78in /  1008.4hPa North 4.9mph /  7.9km/h 11.0mph /  17.7km/h 8% 0.00in /  0mm 666.0 W/m2
14:45 88.7 °F /  31.5 °C 19.9 °F /  -6.7 °C 29.78in /  1008.4hPa West 0.9mph /  1.4km/h 10.0mph /  16.1km/h 8% 0.00in /  0mm 661.0 W/m2
14:51 88.3 °F /  31.3 °C 19.6 °F /  -6.9 °C 29.78in /  1008.4hPa Calm   8.0mph /  12.9km/h 8% 0.00in /  0mm 652.0 W/m2
14:57 88.5 °F /  31.4 °C 19.8 °F /  -6.8 °C 29.78in /  1008.4hPa NW 4.9mph /  7.9km/h 8.0mph /  12.9km/h 8% 0.00in /  0mm 636.0 W/m2
15:03 88.9 °F /  31.6 °C 19.9 °F /  -6.7 °C 29.78in /  1008.4hPa NNE 4.0mph /  6.4km/h 6.0mph /  9.7km/h 8% 0.00in /  0mm 601.0 W/m2
15:09 88.5 °F /  31.4 °C 19.8 °F /  -6.8 °C 29.78in /  1008.4hPa WNW 0.9mph /  1.4km/h 11.0mph /  17.7km/h 8% 0.00in /  0mm 592.0 W/m2
15:15 88.2 °F /  31.2 °C 19.4 °F /  -7 °C 29.78in /  1008.4hPa NW 2.9mph /  4.7km/h 5.0mph /  8km/h 8% 0.00in /  0mm 564.0 W/m2
15:22 88.2 °F /  31.2 °C 22.3 °F /  -5.4 °C 29.78in /  1008.4hPa Calm   7.0mph /  11.3km/h 9% 0.00in /  0mm 555.0 W/m2
15:28 88.5 °F /  31.4 °C 19.8 °F /  -6.8 °C 29.78in /  1008.4hPa NW 4.9mph /  7.9km/h 13.0mph /  20.9km/h 8% 0.00in /  0mm 545.0 W/m2
15:34 88.3 °F /  31.3 °C 19.6 °F /  -6.9 °C 29.78in /  1008.4hPa Calm   4.0mph /  6.4km/h 8% 0.00in /  0mm 527.0 W/m2
15:40 88.2 °F /  31.2 °C 19.4 °F /  -7 °C 29.78in /  1008.4hPa NNW 6.0mph /  9.7km/h 8.0mph /  12.9km/h 8% 0.00in /  0mm 510.0 W/m2
15:46 88.3 °F /  31.3 °C 19.6 °F /  -6.9 °C 29.78in /  1008.4hPa Calm   1.0mph /  1.6km/h 8% 0.00in /  0mm 494.0 W/m2
15:52 88.5 °F /  31.4 °C 19.8 °F /  -6.8 °C 29.78in /  1008.4hPa NNW 2.9mph /  4.7km/h 8.0mph /  12.9km/h 8% 0.00in /  0mm 475.0 W/m2
15:58 88.5 °F /  31.4 °C 19.8 °F /  -6.8 °C 29.77in /  1008hPa Calm   3.0mph /  4.8km/h 8% 0.00in /  0mm 452.0 W/m2
16:04 88.5 °F /  31.4 °C 19.8 °F /  -6.8 °C 29.77in /  1008hPa WSW 0.9mph /  1.4km/h 6.0mph /  9.7km/h 8% 0.00in /  0mm 429.0 W/m2
16:11 88.5 °F /  31.4 °C 19.8 °F /  -6.8 °C 29.78in /  1008.4hPa West 2.9mph /  4.7km/h 13.0mph /  20.9km/h 8% 0.00in /  0mm 413.0 W/m2
16:17 88.3 °F /  31.3 °C 19.6 °F /  -6.9 °C 29.78in /  1008.4hPa West 0.9mph /  1.4km/h 9.0mph /  14.5km/h 8% 0.00in /  0mm 390.0 W/m2
16:23 88.3 °F /  31.3 °C 19.6 °F /  -6.9 °C 29.78in /  1008.4hPa Calm   1.0mph /  1.6km/h 8% 0.00in /  0mm 376.0 W/m2
16:29 88.2 °F /  31.2 °C 19.4 °F /  -7 °C 29.78in /  1008.4hPa Calm   3.0mph /  4.8km/h 8% 0.00in /  0mm 355.0 W/m2
16:35 88.3 °F /  31.3 °C 19.6 °F /  -6.9 °C 29.78in /  1008.4hPa Calm   4.0mph /  6.4km/h 8% 0.00in /  0mm 339.0 W/m2
16:41 88.3 °F /  31.3 °C 19.6 °F /  -6.9 °C 29.78in /  1008.4hPa WNW 2.9mph /  4.7km/h 5.0mph /  8km/h 8% 0.00in /  0mm 309.0 W/m2
16:47 88.2 °F /  31.2 °C 19.4 °F /  -7 °C 29.78in /  1008.4hPa West 2.9mph /  4.7km/h 7.0mph /  11.3km/h 8% 0.00in /  0mm 294.0 W/m2
16:53 87.4 °F /  30.8 °C 21.7 °F /  -5.7 °C 29.78in /  1008.4hPa Calm   3.0mph /  4.8km/h 9% 0.00in /  0mm 276.0 W/m2
17:00 87.3 °F /  30.7 °C 21.6 °F /  -5.8 °C 29.78in /  1008.4hPa NNW 0.9mph /  1.4km/h 7.0mph /  11.3km/h 9% 0.00in /  0mm 253.0 W/m2
17:06 87.1 °F /  30.6 °C 21.4 °F /  -5.9 °C 29.78in /  1008.4hPa Calm   3.0mph /  4.8km/h 9% 0.00in /  0mm 234.0 W/m2
17:12 86.9 °F /  30.5 °C 21.2 °F /  -6 °C 29.78in /  1008.4hPa Calm   4.0mph /  6.4km/h 9% 0.00in /  0mm 218.0 W/m2
17:18 86.9 °F /  30.5 °C 21.2 °F /  -6 °C 29.78in /  1008.4hPa Calm   4.0mph /  6.4km/h 9% 0.00in /  0mm 193.0 W/m2
17:24 87.1 °F /  30.6 °C 21.4 °F /  -5.9 °C 29.78in /  1008.4hPa Calm   2.0mph /  3.2km/h 9% 0.00in /  0mm 174.0 W/m2
17:30 86.5 °F /  30.3 °C 21.0 °F /  -6.1 °C 29.78in /  1008.4hPa Calm   4.0mph /  6.4km/h 9% 0.00in /  0mm 156.0 W/m2
17:36 86.7 °F /  30.4 °C 21.2 °F /  -6 °C 29.78in /  1008.4hPa Calm   2.0mph /  3.2km/h 9% 0.00in /  0mm 139.0 W/m2
17:43 86.7 °F /  30.4 °C 21.2 °F /  -6 °C 29.78in /  1008.4hPa Calm   3.0mph /  4.8km/h 9% 0.00in /  0mm 123.0 W/m2
17:49 86.7 °F /  30.4 °C 18.3 °F /  -7.6 °C 29.78in /  1008.4hPa West 0.9mph /  1.4km/h 1.0mph /  1.6km/h 8% 0.00in /  0mm 102.0 W/m2
17:55 86.5 °F /  30.3 °C 21.0 °F /  -6.1 °C 29.78in /  1008.4hPa North 4.0mph /  6.4km/h 7.0mph /  11.3km/h 9% 0.00in /  0mm 84.0 W/m2
18:01 85.8 °F /  29.9 °C 17.8 °F /  -7.9 °C 29.78in /  1008.4hPa NNW 2.0mph /  3.2km/h 4.0mph /  6.4km/h 8% 0.00in /  0mm 62.0 W/m2
18:07 84.9 °F /  29.4 °C 19.8 °F /  -6.8 °C 29.78in /  1008.4hPa North 0.9mph /  1.4km/h 5.0mph /  8km/h 9% 0.00in /  0mm 40.0 W/m2
18:13 84.0 °F /  28.9 °C 19.0 °F /  -7.2 °C 29.78in /  1008.4hPa NNE 2.9mph /  4.7km/h 4.0mph /  6.4km/h 9% 0.00in /  0mm 32.0 W/m2
18:19 83.5 °F /  28.6 °C 18.7 °F /  -7.4 °C 29.78in /  1008.4hPa North 0.9mph /  1.4km/h 1.0mph /  1.6km/h 9% 0.00in /  0mm 25.0 W/m2
18:25 82.9 °F /  28.3 °C 18.3 °F /  -7.6 °C 29.79in /  1008.7hPa NNW 0.9mph /  1.4km/h 3.0mph /  4.8km/h 9% 0.00in /  0mm 18.0 W/m2
18:32 82.4 °F /  28 °C 20.3 °F /  -6.5 °C 29.79in /  1008.7hPa Calm   1.0mph /  1.6km/h 10% 0.00in /  0mm 12.0 W/m2
18:38 81.9 °F /  27.7 °C 19.9 °F /  -6.7 °C 29.79in /  1008.7hPa Calm   1.0mph /  1.6km/h 10% 0.00in /  0mm 7.0 W/m2
18:44 81.3 °F /  27.4 °C 23.9 °F /  -4.5 °C 29.79in /  1008.7hPa Calm   1.0mph /  1.6km/h 12% 0.00in /  0mm 0.0 W/m2
18:50 80.8 °F /  27.1 °C 21.4 °F /  -5.9 °C 29.79in /  1008.7hPa Calm     11% 0.00in /  0mm 0.0 W/m2
18:56 80.2 °F /  26.8 °C 23.0 °F /  -5 °C 29.80in /  1009hPa Calm   1.0mph /  1.6km/h 12% 0.00in /  0mm 0.0 W/m2
19:02 79.3 °F /  26.3 °C 22.3 °F /  -5.4 °C 29.80in /  1009hPa Calm   1.0mph /  1.6km/h 12% 0.00in /  0mm 0.0 W/m2
19:08 78.6 °F /  25.9 °C 21.7 °F /  -5.7 °C 29.80in /  1009hPa Calm   1.0mph /  1.6km/h 12% 0.00in /  0mm 0.0 W/m2
19:21 77.4 °F /  25.2 °C 20.8 °F /  -6.2 °C 29.80in /  1009hPa Calm   1.0mph /  1.6km/h 12% 0.00in /  0mm 0.0 W/m2
19:27 76.8 °F /  24.9 °C 20.3 °F /  -6.5 °C 29.80in /  1009hPa Calm     12% 0.00in /  0mm 0.0 W/m2
19:33 76.3 °F /  24.6 °C 19.9 °F /  -6.7 °C 29.80in /  1009hPa Calm   1.0mph /  1.6km/h 12% 0.00in /  0mm 0.0 W/m2
19:39 75.7 °F /  24.3 °C 21.4 °F /  -5.9 °C 29.81in /  1009.4hPa Calm   1.0mph /  1.6km/h 13% 0.00in /  0mm 0.0 W/m2
19:45 75.4 °F /  24.1 °C 21.2 °F /  -6 °C 29.81in /  1009.4hPa Calm   1.0mph /  1.6km/h 13% 0.00in /  0mm 0.0 W/m2
19:51 74.8 °F /  23.8 °C 20.7 °F /  -6.3 °C 29.81in /  1009.4hPa Calm   2.0mph /  3.2km/h 13% 0.00in /  0mm 0.0 W/m2
19:57 74.3 °F /  23.5 °C 20.3 °F /  -6.5 °C 29.81in /  1009.4hPa Calm   2.0mph /  3.2km/h 13% 0.00in /  0mm 0.0 W/m2
20:03 73.8 °F /  23.2 °C 19.8 °F /  -6.8 °C 29.82in /  1009.7hPa Calm   2.0mph /  3.2km/h 13% 0.00in /  0mm 0.0 W/m2
20:10 73.2 °F /  22.9 °C 21.2 °F /  -6 °C 29.82in /  1009.7hPa Calm   3.0mph /  4.8km/h 14% 0.00in /  0mm 0.0 W/m2
20:16 72.9 °F /  22.7 °C 20.8 °F /  -6.2 °C 29.82in /  1009.7hPa ENE 2.0mph /  3.2km/h 2.0mph /  3.2km/h 14% 0.00in /  0mm 0.0 W/m2
20:22 72.5 °F /  22.5 °C 20.7 °F /  -6.3 °C 29.82in /  1009.7hPa Calm   2.0mph /  3.2km/h 14% 0.00in /  0mm 0.0 W/m2
20:28 72.1 °F /  22.3 °C 20.3 °F /  -6.5 °C 29.83in /  1010hPa Calm   1.0mph /  1.6km/h 14% 0.00in /  0mm 0.0 W/m2
20:34 72.0 °F /  22.2 °C 20.1 °F /  -6.6 °C 29.84in /  1010.4hPa West 0.9mph /  1.4km/h 2.0mph /  3.2km/h 14% 0.00in /  0mm 0.0 W/m2
20:40 71.6 °F /  22 °C 19.9 °F /  -6.7 °C 29.84in /  1010.4hPa Calm   1.0mph /  1.6km/h 14% 0.00in /  0mm 0.0 W/m2
20:46 71.2 °F /  21.8 °C 21.2 °F /  -6 °C 29.84in /  1010.4hPa Calm     15% 0.00in /  0mm 0.0 W/m2
20:52 70.9 °F /  21.6 °C 20.8 °F /  -6.2 °C 29.85in /  1010.7hPa SE 0.9mph /  1.4km/h 2.0mph /  3.2km/h 15% 0.00in /  0mm 0.0 W/m2
20:58 70.3 °F /  21.3 °C 22.1 °F /  -5.5 °C 29.84in /  1010.4hPa Calm     16% 0.00in /  0mm 0.0 W/m2
21:05 70.2 °F /  21.2 °C 21.9 °F /  -5.6 °C 29.85in /  1010.7hPa Calm   1.0mph /  1.6km/h 16% 0.00in /  0mm 0.0 W/m2
21:11 69.6 °F /  20.9 °C 21.4 °F /  -5.9 °C 29.85in /  1010.7hPa Calm     16% 0.00in /  0mm 0.0 W/m2
21:17 69.3 °F /  20.7 °C 22.6 °F /  -5.2 °C 29.85in /  1010.7hPa Calm     17% 0.00in /  0mm 0.0 W/m2
21:23 68.7 °F /  20.4 °C 22.1 °F /  -5.5 °C 29.85in /  1010.7hPa SE 0.9mph /  1.4km/h 1.0mph /  1.6km/h 17% 0.00in /  0mm 0.0 W/m2
21:29 68.2 °F /  20.1 °C 21.7 °F /  -5.7 °C 29.85in /  1010.7hPa Calm     17% 0.00in /  0mm 0.0 W/m2
21:35 67.8 °F /  19.9 °C 21.4 °F /  -5.9 °C 29.85in /  1010.7hPa Calm     17% 0.00in /  0mm 0.0 W/m2
21:41 67.5 °F /  19.7 °C 22.5 °F /  -5.3 °C 29.86in /  1011.1hPa Calm   1.0mph /  1.6km/h 18% 0.00in /  0mm 0.0 W/m2
21:47 67.1 °F /  19.5 °C 22.1 °F /  -5.5 °C 29.86in /  1011.1hPa Calm     18% 0.00in /  0mm 0.0 W/m2
21:53 66.7 °F /  19.3 °C 23.2 °F /  -4.9 °C 29.86in /  1011.1hPa Calm   1.0mph /  1.6km/h 19% 0.00in /  0mm 0.0 W/m2
21:59 66.7 °F /  19.3 °C 21.9 °F /  -5.6 °C 29.87in /  1011.4hPa Calm   4.0mph /  6.4km/h 18% 0.00in /  0mm 0.0 W/m2
22:05 66.9 °F /  19.4 °C 22.1 °F /  -5.5 °C 29.87in /  1011.4hPa Calm   2.0mph /  3.2km/h 18% 0.00in /  0mm 0.0 W/m2
22:11 66.9 °F /  19.4 °C 20.7 °F /  -6.3 °C 29.87in /  1011.4hPa Calm   1.0mph /  1.6km/h 17% 0.00in /  0mm 0.0 W/m2
22:17 66.9 °F /  19.4 °C 22.1 °F /  -5.5 °C 29.87in /  1011.4hPa Calm     18% 0.00in /  0mm 0.0 W/m2
22:24 66.6 °F /  19.2 °C 21.7 °F /  -5.7 °C 29.87in /  1011.4hPa Calm     18% 0.00in /  0mm 0.0 W/m2
22:30 66.4 °F /  19.1 °C 22.8 °F /  -5.1 °C 29.87in /  1011.4hPa Calm     19% 0.00in /  0mm 0.0 W/m2
22:36 66.2 °F /  19 °C 22.6 °F /  -5.2 °C 29.87in /  1011.4hPa Calm   1.0mph /  1.6km/h 19% 0.00in /  0mm 0.0 W/m2
22:42 66.0 °F /  18.9 °C 22.6 °F /  -5.2 °C 29.87in /  1011.4hPa Calm     19% 0.00in /  0mm 0.0 W/m2
22:48 65.8 °F /  18.8 °C 23.7 °F /  -4.6 °C 29.87in /  1011.4hPa Calm   1.0mph /  1.6km/h 20% 0.00in /  0mm 0.0 W/m2
22:52 65.7 °F /  18.7 °C 23.5 °F /  -4.7 °C 29.87in /  1011.4hPa SE 0.9mph /  1.4km/h 1.0mph /  1.6km/h 20% 0.00in /  0mm 0.0 W/m2
22:58 65.5 °F /  18.6 °C 22.1 °F /  -5.5 °C 29.87in /  1011.4hPa Calm   1.0mph /  1.6km/h 19% 0.00in /  0mm 0.0 W/m2
23:04 65.3 °F /  18.5 °C 23.2 °F /  -4.9 °C 29.87in /  1011.4hPa Calm     20% 0.00in /  0mm 0.0 W/m2
23:10 65.1 °F /  18.4 °C 23.0 °F /  -5 °C 29.87in /  1011.4hPa Calm     20% 0.00in /  0mm 0.0 W/m2
23:16 64.9 °F /  18.3 °C 22.8 °F /  -5.1 °C 29.87in /  1011.4hPa Calm   2.0mph /  3.2km/h 20% 0.00in /  0mm 0.0 W/m2
23:22 64.8 °F /  18.2 °C 21.6 °F /  -5.8 °C 29.87in /  1011.4hPa Calm   3.0mph /  4.8km/h 19% 0.00in /  0mm 0.0 W/m2
23:28 64.4 °F /  18 °C 21.2 °F /  -6 °C 29.87in /  1011.4hPa Calm   2.0mph /  3.2km/h 19% 0.00in /  0mm 0.0 W/m2
23:34 64.2 °F /  17.9 °C 21.0 °F /  -6.1 °C 29.87in /  1011.4hPa Calm   3.0mph /  4.8km/h 19% 0.00in /  0mm 0.0 W/m2
23:40 64.0 °F /  17.8 °C 22.1 °F /  -5.5 °C 29.88in /  1011.7hPa Calm     20% 0.00in /  0mm 0.0 W/m2
23:46 63.9 °F /  17.7 °C 21.9 °F /  -5.6 °C 29.88in /  1011.7hPa Calm     20% 0.00in /  0mm 0.0 W/m2
23:52 63.9 °F /  17.7 °C 21.9 °F /  -5.6 °C 29.87in /  1011.4hPa ENE 0.9mph /  1.4km/h 5.0mph /  8km/h 20% 0.00in /  0mm 0.0 W/m2
23:58 63.9 °F /  17.7 °C 21.9 °F /  -5.6 °C 29.87in /  1011.4hPa Calm   2.0mph /  3.2km/h 20% 0.00in /  0mm 0.0 W/m2
Olympia, Windhoek, Namibia
Compliments of Weather Underground - 3 mb